createdAt,value
2018-04-18T00:01:03.221Z,1023.80
2018-04-18T00:03:05.110Z,1023.85
2018-04-18T00:05:06.785Z,1023.88
2018-04-18T00:07:08.553Z,1023.81
2018-04-18T00:09:10.268Z,1023.85
2018-04-18T00:11:12.126Z,1023.86
2018-04-18T00:13:13.879Z,1023.82
2018-04-18T00:15:15.573Z,1023.82
2018-04-18T00:17:17.360Z,1023.81
2018-04-18T00:19:19.004Z,1023.78
2018-04-18T00:21:20.706Z,1023.83
2018-04-18T00:23:22.340Z,1023.83
2018-04-18T00:25:24.289Z,1023.84
2018-04-18T00:27:25.930Z,1023.89
2018-04-18T00:29:27.818Z,1023.89
2018-04-18T00:31:29.529Z,1023.94
2018-04-18T00:33:31.366Z,1023.94
2018-04-18T00:35:33.287Z,1023.95
2018-04-18T00:37:35.051Z,1023.94
2018-04-18T00:39:36.773Z,1023.95
2018-04-18T00:41:38.649Z,1023.96
2018-04-18T00:43:40.604Z,1024.00
2018-04-18T00:45:42.481Z,1023.99
2018-04-18T00:47:44.176Z,1024.02
2018-04-18T00:49:45.780Z,1023.95
2018-04-18T00:51:47.487Z,1023.92
2018-04-18T00:53:49.451Z,1023.94
2018-04-18T00:55:51.206Z,1023.97
2018-04-18T00:57:52.906Z,1023.99
2018-04-18T00:59:54.593Z,1023.98
2018-04-18T01:01:56.462Z,1023.98
2018-04-18T01:03:58.123Z,1023.99
2018-04-18T01:05:59.878Z,1024.02
2018-04-18T01:08:01.595Z,1024.06
2018-04-18T01:10:03.488Z,1024.07
2018-04-18T01:12:05.254Z,1024.07
2018-04-18T01:14:07.099Z,1024.06
2018-04-18T01:16:08.791Z,1024.12
2018-04-18T01:18:10.515Z,1024.17
2018-04-18T01:20:12.207Z,1024.17
2018-04-18T01:22:13.955Z,1024.16
2018-04-18T01:24:15.666Z,1024.14
2018-04-18T01:26:17.401Z,1024.17
2018-04-18T01:28:19.093Z,1024.20
2018-04-18T01:30:21.054Z,1024.24
2018-04-18T01:32:22.909Z,1024.28
2018-04-18T01:34:24.698Z,1024.29
2018-04-18T01:36:26.362Z,1024.26
2018-04-18T01:38:28.163Z,1024.24
2018-04-18T01:40:29.989Z,1024.25
2018-04-18T01:42:31.859Z,1024.32
2018-04-18T01:44:33.603Z,1024.33
2018-04-18T01:46:35.389Z,1024.35
2018-04-18T01:48:37.097Z,1024.34
2018-04-18T01:50:38.931Z,1024.34
2018-04-18T01:52:40.781Z,1024.41
2018-04-18T01:54:42.476Z,1024.39
2018-04-18T01:56:44.170Z,1024.39
2018-04-18T01:58:45.849Z,1024.43
2018-04-18T02:00:47.728Z,1024.38
2018-04-18T02:02:49.599Z,1024.42
2018-04-18T02:04:51.565Z,1024.42
2018-04-18T02:06:53.359Z,1024.47
2018-04-18T02:08:55.280Z,1024.45
2018-04-18T02:10:56.955Z,1024.50
2018-04-18T02:12:58.838Z,1024.48
2018-04-18T02:15:00.676Z,1024.46
2018-04-18T02:17:02.295Z,1024.50
2018-04-18T02:19:04.005Z,1024.48
2018-04-18T02:21:05.837Z,1024.54
2018-04-18T02:23:07.533Z,1024.53
2018-04-18T02:25:09.193Z,1024.55
2018-04-18T02:27:10.880Z,1024.55
2018-04-18T02:29:12.665Z,1024.56
2018-04-18T02:31:14.387Z,1024.59
2018-04-18T02:33:16.038Z,1024.60
2018-04-18T02:35:17.849Z,1024.64
2018-04-18T02:37:19.701Z,1024.66
2018-04-18T02:39:21.615Z,1024.68
2018-04-18T02:41:23.341Z,1024.67
2018-04-18T02:43:25.130Z,1024.75
2018-04-18T02:45:26.986Z,1024.75
2018-04-18T02:47:28.956Z,1024.76
2018-04-18T02:49:30.653Z,1024.79
2018-04-18T02:51:32.572Z,1024.82
2018-04-18T02:53:34.233Z,1024.86
2018-04-18T02:55:36.082Z,1024.89
2018-04-18T02:57:37.810Z,1024.87
2018-04-18T02:59:39.452Z,1024.92
2018-04-18T03:01:41.100Z,1024.85
2018-04-18T03:03:43.032Z,1024.92
2018-04-18T03:05:44.766Z,1024.91
2018-04-18T03:07:46.629Z,1024.89
2018-04-18T03:09:48.309Z,1024.93
2018-04-18T03:11:50.063Z,1024.96
2018-04-18T03:13:51.760Z,1024.93
2018-04-18T03:15:53.561Z,1024.97
2018-04-18T03:17:55.351Z,1025.01
2018-04-18T03:19:57.220Z,1025.04
2018-04-18T03:21:58.913Z,1025.03
2018-04-18T03:24:00.862Z,1025.00
2018-04-18T03:26:02.585Z,1025.06
2018-04-18T03:28:04.278Z,1025.06
2018-04-18T03:30:05.955Z,1025.06
2018-04-18T03:32:07.881Z,1025.08
2018-04-18T03:34:09.757Z,1025.09
2018-04-18T03:36:11.636Z,1025.07
2018-04-18T03:38:13.439Z,1025.09
2018-04-18T03:40:15.296Z,1025.08
2018-04-18T03:42:17.016Z,1025.08
2018-04-18T03:44:18.732Z,1025.06
2018-04-18T03:46:20.618Z,1025.08
2018-04-18T03:48:22.310Z,1025.06
2018-04-18T03:50:24.206Z,1025.04
2018-04-18T03:52:26.102Z,1025.07
2018-04-18T03:54:27.748Z,1025.12
2018-04-18T03:56:29.590Z,1025.12
2018-04-18T03:58:31.325Z,1025.12
2018-04-18T04:00:33.161Z,1025.17
2018-04-18T04:02:34.910Z,1025.16
2018-04-18T04:04:36.642Z,1025.19
2018-04-18T04:06:38.613Z,1025.20
2018-04-18T04:08:40.545Z,1025.22
2018-04-18T04:10:42.384Z,1025.24
2018-04-18T04:12:44.160Z,1025.27
2018-04-18T04:14:45.775Z,1025.30
2018-04-18T04:16:47.626Z,1025.30
2018-04-18T04:18:49.360Z,1025.31
2018-04-18T04:20:51.231Z,1025.32
2018-04-18T04:22:52.971Z,1025.36
2018-04-18T04:24:54.702Z,1025.34
2018-04-18T04:26:56.548Z,1025.35
2018-04-18T04:28:58.101Z,1025.42
2018-04-18T04:30:59.844Z,1025.37
2018-04-18T04:33:01.508Z,1025.45
2018-04-18T04:35:03.247Z,1025.44
2018-04-18T04:37:05.037Z,1025.46
2018-04-18T04:39:06.898Z,1025.43
2018-04-18T04:41:08.887Z,1025.46
2018-04-18T04:43:10.805Z,1025.50
2018-04-18T04:45:12.575Z,1025.49
2018-04-18T04:47:14.260Z,1025.51
2018-04-18T04:49:16.107Z,1025.53
2018-04-18T04:51:17.829Z,1025.49
2018-04-18T04:53:19.713Z,1025.52
2018-04-18T04:55:21.450Z,1025.52
2018-04-18T04:57:23.200Z,1025.50
2018-04-18T04:59:25.053Z,1025.54
2018-04-18T05:01:27.069Z,1025.55
2018-04-18T05:03:28.986Z,1025.62
2018-04-18T05:05:30.672Z,1025.63
2018-04-18T05:07:32.344Z,1025.68
2018-04-18T05:09:34.075Z,1025.70
2018-04-18T05:11:35.988Z,1025.69
2018-04-18T05:13:37.686Z,1025.75
2018-04-18T05:15:39.365Z,1025.76
2018-04-18T05:17:41.401Z,1025.80
2018-04-18T05:19:43.569Z,1025.80
2018-04-18T05:21:45.383Z,1025.79
2018-04-18T05:23:47.484Z,1025.87
2018-04-18T05:25:49.257Z,1025.88
2018-04-18T05:27:51.597Z,1025.90
2018-04-18T05:29:53.808Z,1025.94
2018-04-18T05:32:36.680Z,1026.02
2018-04-18T05:34:39.278Z,1026.03
2018-04-18T05:36:41.195Z,1026.03
2018-04-18T05:38:42.849Z,1026.06
2018-04-18T05:40:44.598Z,1026.09
2018-04-18T05:42:46.806Z,1026.09
2018-04-18T05:44:49.107Z,1026.09
2018-04-18T05:46:51.475Z,1026.13
2018-04-18T05:48:53.234Z,1026.16
2018-04-18T05:50:55.352Z,1026.19
2018-04-18T05:52:57.603Z,1026.19
2018-04-18T05:54:59.519Z,1026.24
2018-04-18T05:57:01.274Z,1026.28
2018-04-18T05:59:03.187Z,1026.31
2018-04-18T06:01:05.433Z,1026.29
2018-04-18T06:03:07.683Z,1026.31
2018-04-18T06:05:09.507Z,1026.32
2018-04-18T06:07:11.518Z,1026.33
2018-04-18T06:09:13.843Z,1026.33
2018-04-18T06:11:15.639Z,1026.38
2018-04-18T06:13:17.432Z,1026.39
2018-04-18T06:15:19.132Z,1026.41
2018-04-18T06:17:20.928Z,1026.45
2018-04-18T06:19:22.785Z,1026.49
2018-04-18T06:21:24.484Z,1026.50
2018-04-18T06:23:26.006Z,1026.55
2018-04-18T06:25:27.676Z,1026.63
2018-04-18T06:27:29.476Z,1026.66
2018-04-18T06:29:31.193Z,1026.71
2018-04-18T06:31:32.712Z,1026.79
2018-04-18T06:33:34.385Z,1026.84
2018-04-18T06:35:35.930Z,1026.87
2018-04-18T06:37:37.665Z,1026.86
2018-04-18T06:39:39.407Z,1026.78
2018-04-18T06:41:40.927Z,1026.80
2018-04-18T06:43:42.577Z,1026.88
2018-04-18T06:45:44.359Z,1026.88
2018-04-18T06:47:45.925Z,1026.84
2018-04-18T06:49:47.405Z,1026.88
2018-04-18T06:51:49.165Z,1026.87
2018-04-18T06:53:50.661Z,1026.91
2018-04-18T06:55:52.175Z,1026.96
2018-04-18T06:57:53.676Z,1026.98
2018-04-18T06:59:55.144Z,1027.02
2018-04-18T07:01:56.641Z,1027.10
2018-04-18T07:03:58.135Z,1027.02
2018-04-18T07:06:00.256Z,1027.05
2018-04-18T07:08:02.034Z,1027.10
2018-04-18T07:10:03.890Z,1027.08
2018-04-18T07:12:06.183Z,1027.14
2018-04-18T07:14:07.916Z,1027.13
2018-04-18T07:16:09.883Z,1027.11
2018-04-18T07:18:11.656Z,1027.23
2018-04-18T07:20:13.902Z,1027.22
2018-04-18T07:22:15.801Z,1027.20
2018-04-18T07:24:18.252Z,1027.23
2018-04-18T07:26:20.503Z,1027.17
2018-04-18T07:28:22.152Z,1027.14
2018-04-18T07:30:23.931Z,1027.12
2018-04-18T07:32:25.649Z,1027.09
2018-04-18T07:34:27.393Z,1027.10
2018-04-18T07:36:29.212Z,1027.11
2018-04-18T07:38:32.183Z,1027.12
2018-04-18T07:40:33.868Z,1027.11
2018-04-18T07:42:35.629Z,1027.14
2018-04-18T07:44:37.357Z,1027.11
2018-04-18T07:46:39.053Z,1027.10
2018-04-18T07:48:40.939Z,1027.11
2018-04-18T07:50:42.659Z,1027.11
2018-04-18T07:52:44.433Z,1027.09
2018-04-18T07:54:46.407Z,1027.11
2018-04-18T07:56:48.176Z,1027.12
2018-04-18T07:58:50.020Z,1027.11
2018-04-18T08:00:51.993Z,1027.12
2018-04-18T08:02:53.799Z,1027.13
2018-04-18T08:04:55.598Z,1027.11
2018-04-18T08:06:57.420Z,1027.11
2018-04-18T08:08:59.110Z,1027.15
2018-04-18T08:11:01.202Z,1027.15
2018-04-18T08:13:02.929Z,1027.21
2018-04-18T08:15:04.719Z,1027.21
2018-04-18T08:17:06.480Z,1027.25
2018-04-18T08:19:08.496Z,1027.23
2018-04-18T08:21:10.365Z,1027.25
2018-04-18T08:23:12.167Z,1027.23
2018-04-18T08:25:14.128Z,1027.26
2018-04-18T08:27:16.146Z,1027.23
2018-04-18T08:29:17.913Z,1027.25
2018-04-18T08:31:19.812Z,1027.27
2018-04-18T08:33:21.534Z,1027.30
2018-04-18T08:35:23.306Z,1027.33
2018-04-18T08:37:25.145Z,1027.40
2018-04-18T08:39:27.161Z,1027.37
2018-04-18T08:41:29.102Z,1027.35
2018-04-18T08:43:30.792Z,1027.32
2018-04-18T08:45:32.912Z,1027.38
2018-04-18T08:47:35.022Z,1027.38
2018-04-18T08:49:36.795Z,1027.45
2018-04-18T08:51:38.615Z,1027.44
2018-04-18T08:53:40.488Z,1027.48
2018-04-18T08:55:42.229Z,1027.49
2018-04-18T08:57:43.968Z,1027.50
2018-04-18T08:59:45.703Z,1027.49
2018-04-18T09:01:47.846Z,1027.49
2018-04-18T09:03:49.515Z,1027.53
2018-04-18T09:05:51.782Z,1027.54
2018-04-18T09:07:53.902Z,1027.54
2018-04-18T09:10:38.205Z,1027.51
2018-04-18T09:12:39.608Z,1027.52
2018-04-18T09:14:41.556Z,1027.49
2018-04-18T09:16:43.177Z,1027.51
2018-04-18T09:19:27.111Z,1027.52
2018-04-18T09:21:29.081Z,1027.49
2018-04-18T09:23:30.570Z,1027.48
2018-04-18T09:25:32.490Z,1027.47
2018-04-18T09:27:35.951Z,1027.46
2018-04-18T09:29:37.843Z,1027.47
2018-04-18T09:31:39.790Z,1027.46
2018-04-18T09:33:43.545Z,1027.46
2018-04-18T09:35:45.275Z,1027.49
2018-04-18T09:37:49.006Z,1027.46
2018-04-18T09:39:51.154Z,1027.44
2018-04-18T09:41:52.957Z,1027.41
2018-04-18T09:43:56.579Z,1027.45
2018-04-18T09:45:59.875Z,1027.44
2018-04-18T09:48:01.592Z,1027.42
2018-04-18T09:50:03.601Z,1027.46
2018-04-18T09:52:07.112Z,1027.40
2018-04-18T09:54:08.825Z,1027.41
2018-04-18T09:56:10.699Z,1027.35
2018-04-18T09:58:12.692Z,1027.35
2018-04-18T10:00:14.519Z,1027.33
2018-04-18T10:02:17.729Z,1027.34
2018-04-18T10:04:19.809Z,1027.33
2018-04-18T10:06:23.212Z,1027.30
2018-04-18T10:08:26.705Z,1027.35
2018-04-18T10:10:28.347Z,1027.33
2018-04-18T10:12:31.311Z,1027.37
2018-04-18T10:14:33.465Z,1027.35
2018-04-18T10:16:35.276Z,1027.32
2018-04-18T10:18:37.139Z,1027.30
2018-04-18T10:20:40.834Z,1027.29
2018-04-18T10:22:42.566Z,1027.24
2018-04-18T10:24:44.510Z,1027.25
2018-04-18T10:26:46.359Z,1027.24
2018-04-18T10:28:48.333Z,1027.25
2018-04-18T10:30:52.107Z,1027.25
2018-04-18T10:32:53.909Z,1027.20
2018-04-18T10:34:55.916Z,1027.20
2018-04-18T10:36:57.816Z,1027.20
2018-04-18T10:39:00.973Z,1027.22
2018-04-18T10:41:02.810Z,1027.18
2018-04-18T10:43:04.710Z,1027.20
2018-04-18T10:45:08.100Z,1027.17
2018-04-18T10:47:09.824Z,1027.21
2018-04-18T10:49:12.814Z,1027.14
2018-04-18T10:51:14.596Z,1027.12
2018-04-18T10:53:17.673Z,1027.12
2018-04-18T10:55:21.079Z,1027.08
2018-04-18T10:57:24.132Z,1027.10
2018-04-18T10:59:25.868Z,1027.07
2018-04-18T11:01:29.195Z,1027.03
2018-04-18T11:03:30.917Z,1026.99
2018-04-18T11:05:32.799Z,1027.03
2018-04-18T11:07:34.691Z,1027.02
2018-04-18T11:09:36.616Z,1027.02
2018-04-18T11:11:38.499Z,1027.01
2018-04-18T11:13:40.421Z,1027.08
2018-04-18T11:15:42.572Z,1027.10
2018-04-18T11:17:44.449Z,1027.10
2018-04-18T11:19:46.277Z,1027.10
2018-04-18T11:21:48.201Z,1027.09
2018-04-18T11:23:50.059Z,1027.04
2018-04-18T11:25:51.886Z,1027.02
2018-04-18T11:27:53.791Z,1027.03
2018-04-18T11:29:55.658Z,1027.03
2018-04-18T11:31:57.512Z,1027.02
2018-04-18T11:34:00.654Z,1027.06
2018-04-18T11:36:02.723Z,1026.99
2018-04-18T11:38:06.141Z,1027.01
2018-04-18T11:40:08.936Z,1027.03
2018-04-18T11:42:11.887Z,1026.96
2018-04-18T11:44:13.641Z,1026.95
2018-04-18T11:46:15.446Z,1026.93
2018-04-18T11:48:17.253Z,1026.93
2018-04-18T11:50:20.464Z,1026.90
2018-04-18T11:52:24.584Z,1026.90
2018-04-18T11:54:27.797Z,1026.89
2018-04-18T11:56:29.719Z,1026.84
2018-04-18T11:58:31.750Z,1026.85
2018-04-18T12:00:33.604Z,1026.80
2018-04-18T12:02:35.423Z,1026.83
2018-04-18T12:04:37.288Z,1026.81
2018-04-18T12:06:39.108Z,1026.85
2018-04-18T12:08:40.958Z,1026.78
2018-04-18T12:10:44.544Z,1026.81
2018-04-18T12:12:47.468Z,1026.79
2018-04-18T12:14:49.314Z,1026.76
2018-04-18T12:16:51.347Z,1026.77
2018-04-18T12:18:53.214Z,1026.83
2018-04-18T12:20:55.103Z,1026.82
2018-04-18T12:22:56.895Z,1026.77
2018-04-18T12:24:58.801Z,1026.73
2018-04-18T12:27:00.596Z,1026.73
2018-04-18T12:29:02.627Z,1026.76
2018-04-18T12:31:04.425Z,1026.75
2018-04-18T12:33:07.382Z,1026.71
2018-04-18T12:35:09.332Z,1026.66
2018-04-18T12:37:11.104Z,1026.72
2018-04-18T12:39:13.315Z,1026.69
2018-04-18T12:41:15.087Z,1026.64
2018-04-18T12:43:16.909Z,1026.63
2018-04-18T12:45:18.770Z,1026.56
2018-04-18T12:47:20.645Z,1026.58
2018-04-18T12:49:22.440Z,1026.54
2018-04-18T12:51:24.265Z,1026.52
2018-04-18T12:53:26.163Z,1026.52
2018-04-18T12:55:30.209Z,1026.57
2018-04-18T12:57:33.392Z,1026.50
2018-04-18T12:59:35.176Z,1026.50
2018-04-18T13:01:37.035Z,1026.51
2018-04-18T13:03:38.795Z,1026.50
2018-04-18T13:05:40.623Z,1026.49
2018-04-18T13:07:42.394Z,1026.42
2018-04-18T13:09:45.176Z,1026.43
2018-04-18T13:11:46.939Z,1026.40
2018-04-18T13:13:48.836Z,1026.38
2018-04-18T13:15:50.738Z,1026.36
2018-04-18T13:17:52.581Z,1026.35
2018-04-18T13:19:54.326Z,1026.34
2018-04-18T13:21:56.203Z,1026.32
2018-04-18T13:23:58.044Z,1026.32
2018-04-18T13:26:00.952Z,1026.36
2018-04-18T13:28:02.690Z,1026.29
2018-04-18T13:30:04.518Z,1026.27
2018-04-18T13:32:07.811Z,1026.27
2018-04-18T13:34:09.592Z,1026.26
2018-04-18T13:36:11.531Z,1026.23
2018-04-18T13:38:13.375Z,1026.25
2018-04-18T13:40:15.205Z,1026.21
2018-04-18T13:42:18.485Z,1026.16
2018-04-18T13:44:21.349Z,1026.13
2018-04-18T13:46:23.179Z,1026.10
2018-04-18T13:48:25.877Z,1026.09
2018-04-18T13:50:28.776Z,1026.09
2018-04-18T13:52:30.547Z,1026.07
2018-04-18T13:54:33.401Z,1026.06
2018-04-18T13:56:35.087Z,1026.07
2018-04-18T13:58:36.925Z,1026.01
2018-04-18T14:00:38.836Z,1025.97
2018-04-18T14:02:40.615Z,1025.99
2018-04-18T14:04:42.360Z,1026.02
2018-04-18T14:06:44.368Z,1025.97
2018-04-18T14:08:46.243Z,1025.98
2018-04-18T14:10:48.136Z,1026.02
2018-04-18T14:12:49.964Z,1026.05
2018-04-18T14:14:51.818Z,1026.04
2018-04-18T14:16:53.620Z,1026.05
2018-04-18T14:18:56.941Z,1026.05
2018-04-18T14:20:58.683Z,1026.04
2018-04-18T14:23:00.492Z,1025.97
2018-04-18T14:25:02.388Z,1025.96
2018-04-18T14:27:04.329Z,1025.94
2018-04-18T14:29:06.247Z,1025.93
2018-04-18T14:31:08.058Z,1025.92
2018-04-18T14:33:09.885Z,1025.94
2018-04-18T14:35:11.761Z,1025.94
2018-04-18T14:37:14.257Z,1025.92
2018-04-18T14:39:16.049Z,1025.89
2018-04-18T14:41:17.889Z,1025.85
2018-04-18T14:43:20.692Z,1025.84
2018-04-18T14:45:22.646Z,1025.81
2018-04-18T14:47:25.430Z,1025.80
2018-04-18T14:49:28.041Z,1025.80
2018-04-18T14:51:30.592Z,1025.74
2018-04-18T14:53:32.607Z,1025.72
2018-04-18T14:55:34.424Z,1025.66
2018-04-18T14:57:36.227Z,1025.67
2018-04-18T14:59:38.157Z,1025.72
2018-04-18T15:01:40.491Z,1025.73
2018-04-18T15:03:42.486Z,1025.70
2018-04-18T15:05:44.664Z,1025.72
2018-04-18T15:07:46.531Z,1025.71
2018-04-18T15:09:48.353Z,1025.65
2018-04-18T15:11:51.158Z,1025.65
2018-04-18T15:13:53.017Z,1025.63
2018-04-18T15:15:54.849Z,1025.61
2018-04-18T15:17:57.625Z,1025.61
2018-04-18T15:19:59.459Z,1025.60
2018-04-18T15:22:01.195Z,1025.65
2018-04-18T15:24:03.112Z,1025.67
2018-04-18T15:26:06.185Z,1025.63
2018-04-18T15:28:08.177Z,1025.63
2018-04-18T15:30:09.999Z,1025.57
2018-04-18T15:32:12.566Z,1025.56
2018-04-18T15:34:14.485Z,1025.51
2018-04-18T15:36:16.969Z,1025.52
2018-04-18T15:38:18.873Z,1025.47
2018-04-18T15:40:20.731Z,1025.43
2018-04-18T15:42:23.053Z,1025.42
2018-04-18T15:44:24.821Z,1025.44
2018-04-18T15:46:26.628Z,1025.43
2018-04-18T15:48:28.810Z,1025.40
2018-04-18T15:50:30.606Z,1025.36
2018-04-18T15:52:32.457Z,1025.34
2018-04-18T15:54:34.297Z,1025.35
2018-04-18T15:56:36.222Z,1025.34
2018-04-18T15:58:38.058Z,1025.32
2018-04-18T16:00:39.867Z,1025.32
2018-04-18T16:02:42.263Z,1025.27
2018-04-18T16:04:44.096Z,1025.29
2018-04-18T16:06:45.900Z,1025.27
2018-04-18T16:08:47.841Z,1025.27
2018-04-18T16:10:49.667Z,1025.23
2018-04-18T16:12:51.901Z,1025.20
2018-04-18T16:14:53.688Z,1025.23
2018-04-18T16:16:55.609Z,1025.19
2018-04-18T16:18:57.781Z,1025.22
2018-04-18T16:20:59.571Z,1025.22
2018-04-18T16:23:01.577Z,1025.22
2018-04-18T16:25:03.337Z,1025.20
2018-04-18T16:27:05.252Z,1025.22
2018-04-18T16:29:07.130Z,1025.20
2018-04-18T16:31:09.018Z,1025.22
2018-04-18T16:33:11.276Z,1025.22
2018-04-18T16:35:13.201Z,1025.27
2018-04-18T16:37:14.943Z,1025.22
2018-04-18T16:39:16.770Z,1025.21
2018-04-18T16:41:19.133Z,1025.17
2018-04-18T16:43:21.249Z,1025.20
2018-04-18T16:45:23.379Z,1025.22
2018-04-18T16:47:26.058Z,1025.14
2018-04-18T16:49:29.060Z,1025.11
2018-04-18T16:51:30.914Z,1025.07
2018-04-18T16:53:32.688Z,1025.07
2018-04-18T16:55:34.557Z,1025.04
2018-04-18T16:57:36.398Z,1025.05
2018-04-18T16:59:38.117Z,1025.05
2018-04-18T17:01:40.259Z,1025.07
2018-04-18T17:03:42.009Z,1025.03
2018-04-18T17:05:43.884Z,1025.04
2018-04-18T17:07:45.908Z,1024.96
2018-04-18T17:10:27.682Z,1024.97
2018-04-18T17:12:29.226Z,1024.99
2018-04-18T17:14:30.681Z,1025.00
2018-04-18T17:17:14.584Z,1025.01
2018-04-18T17:20:05.188Z,1024.95
